createdAt,value
2019-02-11T00:00:37.324Z,5.50
2019-02-11T00:03:06.332Z,5.50
2019-02-11T00:05:35.136Z,5.40
2019-02-11T00:08:04.370Z,5.40
2019-02-11T00:10:33.181Z,5.40
2019-02-11T00:13:10.121Z,5.40
2019-02-11T00:15:32.752Z,5.30
2019-02-11T00:18:01.611Z,5.30
2019-02-11T00:20:30.418Z,5.30
2019-02-11T00:22:59.605Z,5.30
2019-02-11T00:25:28.477Z,5.30
2019-02-11T00:27:57.369Z,5.30
2019-02-11T00:30:26.570Z,5.30
2019-02-11T00:32:55.439Z,5.30
2019-02-11T00:35:24.372Z,5.30
2019-02-11T00:37:53.546Z,5.20
2019-02-11T00:40:22.447Z,5.20
2019-02-11T00:42:51.279Z,5.10
2019-02-11T00:45:20.263Z,5.10
2019-02-11T00:47:49.150Z,5.10
2019-02-11T00:50:17.956Z,5.10
2019-02-11T00:52:46.997Z,5.10
2019-02-11T00:55:15.884Z,5.10
2019-02-11T00:57:44.661Z,5.10
2019-02-11T01:00:14.606Z,5.10
2019-02-11T01:02:43.472Z,5.10
2019-02-11T01:05:12.428Z,5.10
2019-02-11T01:07:41.316Z,5.10
2019-02-11T01:10:11.292Z,5.10
2019-02-11T01:12:40.154Z,5.10
2019-02-11T01:15:10.752Z,5.10
2019-02-11T01:17:39.660Z,5.20
2019-02-11T01:20:10.585Z,5.20
2019-02-11T01:22:39.725Z,5.30
2019-02-11T01:25:09.023Z,5.40
2019-02-11T01:27:37.845Z,5.50
2019-02-11T01:30:11.543Z,5.50
2019-02-11T01:32:40.368Z,5.50
2019-02-11T01:35:09.249Z,5.60
2019-02-11T01:37:38.419Z,5.60
2019-02-11T01:40:10.120Z,5.60
2019-02-11T01:42:39.137Z,5.40
2019-02-11T01:45:09.713Z,5.30
2019-02-11T01:47:38.650Z,5.40
2019-02-11T01:50:10.037Z,5.40
2019-02-11T01:52:38.837Z,5.50
2019-02-11T01:55:07.874Z,5.50
2019-02-11T01:57:37.112Z,5.50
2019-02-11T02:00:08.285Z,5.50
2019-02-11T02:02:37.113Z,5.40
2019-02-11T02:05:06.439Z,5.40
2019-02-11T02:07:35.559Z,5.30
2019-02-11T02:10:04.895Z,5.30
2019-02-11T02:12:33.852Z,5.30
2019-02-11T02:15:02.687Z,5.30
2019-02-11T02:17:31.503Z,5.20
2019-02-11T02:20:00.511Z,5.20
2019-02-11T02:22:29.328Z,5.10
2019-02-11T02:24:58.213Z,5.10
2019-02-11T02:27:27.501Z,5.20
2019-02-11T02:29:56.347Z,5.20
2019-02-11T02:32:25.166Z,5.20
2019-02-11T02:34:54.173Z,5.20
2019-02-11T02:37:22.977Z,5.20
2019-02-11T02:39:51.797Z,5.20
2019-02-11T02:42:20.933Z,5.20
2019-02-11T02:44:49.953Z,5.30
2019-02-11T02:47:18.852Z,5.20
2019-02-11T02:49:47.936Z,5.20
2019-02-11T02:52:16.830Z,5.10
2019-02-11T02:54:45.627Z,5.10
2019-02-11T02:57:14.809Z,5.10
2019-02-11T02:59:43.634Z,5.10
2019-02-11T03:02:12.583Z,5.00
2019-02-11T03:04:41.668Z,5.00
2019-02-11T03:07:10.578Z,5.00
2019-02-11T03:09:39.417Z,5.00
2019-02-11T03:12:08.466Z,4.90
2019-02-11T03:14:37.681Z,4.90
2019-02-11T03:17:06.709Z,4.80
2019-02-11T03:19:35.690Z,4.80
2019-02-11T03:22:04.565Z,4.80
2019-02-11T03:24:36.374Z,4.80
2019-02-11T03:27:05.241Z,4.80
2019-02-11T03:29:34.165Z,4.80
2019-02-11T03:32:03.199Z,4.80
2019-02-11T03:34:32.009Z,4.70
2019-02-11T03:37:00.845Z,4.70
2019-02-11T03:39:29.878Z,4.70
2019-02-11T03:41:59.072Z,4.70
2019-02-11T03:44:27.885Z,4.70
2019-02-11T03:47:16.173Z,4.70
2019-02-11T03:49:44.962Z,4.70
2019-02-11T03:52:13.937Z,4.70
2019-02-11T03:54:43.157Z,4.70
2019-02-11T03:57:12.062Z,4.70
2019-02-11T03:59:40.960Z,4.70
2019-02-11T04:02:10.357Z,4.70
2019-02-11T04:04:39.331Z,4.80
2019-02-11T04:07:08.141Z,4.80
2019-02-11T04:09:37.212Z,4.80
2019-02-11T04:12:06.051Z,4.90
2019-02-11T04:14:34.933Z,4.80
2019-02-11T04:17:04.055Z,4.80
2019-02-11T04:19:32.917Z,4.80
2019-02-11T04:22:09.361Z,4.80
2019-02-11T04:24:38.319Z,4.80
2019-02-11T04:27:07.365Z,4.70
2019-02-11T04:29:36.441Z,4.80
2019-02-11T04:32:05.296Z,4.70
2019-02-11T04:34:34.148Z,4.70
2019-02-11T04:37:03.526Z,4.70
2019-02-11T04:39:32.350Z,4.70
2019-02-11T04:42:01.149Z,4.70
2019-02-11T04:44:33.947Z,4.60
2019-02-11T04:47:00.753Z,4.60
2019-02-11T04:49:29.586Z,4.60
2019-02-11T04:51:58.989Z,4.60
2019-02-11T04:54:28.137Z,4.50
2019-02-11T04:56:57.123Z,4.50
2019-02-11T04:59:26.364Z,4.50
2019-02-11T05:01:55.197Z,4.50
2019-02-11T05:04:24.111Z,4.50
2019-02-11T05:06:53.090Z,4.50
2019-02-11T05:09:21.903Z,4.50
2019-02-11T05:11:50.716Z,4.50
2019-02-11T05:14:19.669Z,4.50
2019-02-11T05:16:48.550Z,4.50
2019-02-11T05:19:17.368Z,4.40
2019-02-11T05:21:46.431Z,4.40
2019-02-11T05:24:15.238Z,4.30
2019-02-11T05:26:44.101Z,4.30
2019-02-11T05:29:13.110Z,4.30
2019-02-11T05:31:42.069Z,4.20
2019-02-11T05:34:11.018Z,4.30
2019-02-11T05:36:40.062Z,4.20
2019-02-11T05:39:08.934Z,4.20
2019-02-11T05:41:38.015Z,4.20
2019-02-11T05:44:07.121Z,4.10
2019-02-11T05:46:36.003Z,4.10
2019-02-11T05:49:04.835Z,4.20
2019-02-11T05:51:33.960Z,4.10
2019-02-11T05:54:02.858Z,4.20
2019-02-11T05:56:31.669Z,4.20
2019-02-11T05:59:00.816Z,4.10
2019-02-11T06:01:30.612Z,4.10
2019-02-11T06:03:59.555Z,4.10
2019-02-11T06:06:28.691Z,4.10
2019-02-11T06:08:57.538Z,4.10
2019-02-11T06:11:26.326Z,4.10
2019-02-11T06:13:55.243Z,4.10
2019-02-11T06:16:24.047Z,4.10
2019-02-11T06:18:52.900Z,4.10
2019-02-11T06:21:22.113Z,4.10
2019-02-11T06:23:50.953Z,4.10
2019-02-11T06:26:19.776Z,4.10
2019-02-11T06:28:50.013Z,4.00
2019-02-11T06:31:18.828Z,4.10
2019-02-11T06:33:47.699Z,4.00
2019-02-11T06:36:16.719Z,4.00
2019-02-11T06:38:45.516Z,4.00
2019-02-11T06:41:14.465Z,3.90
2019-02-11T06:43:43.576Z,3.90
2019-02-11T06:46:12.472Z,4.00
2019-02-11T06:48:41.284Z,4.00
2019-02-11T06:51:10.355Z,3.90
2019-02-11T06:53:42.021Z,3.90
2019-02-11T06:56:12.030Z,4.00
2019-02-11T06:58:40.812Z,4.00
2019-02-11T07:01:09.896Z,4.10
2019-02-11T07:03:38.900Z,4.20
2019-02-11T07:06:07.776Z,4.20
2019-02-11T07:08:36.598Z,4.20
2019-02-11T07:11:05.946Z,4.10
2019-02-11T07:13:34.796Z,4.10
2019-02-11T07:16:03.711Z,4.10
2019-02-11T07:18:32.758Z,4.10
2019-02-11T07:21:01.617Z,4.10
2019-02-11T07:23:30.476Z,4.10
2019-02-11T07:25:59.559Z,4.20
2019-02-11T07:28:28.498Z,4.20
2019-02-11T07:30:57.349Z,4.20
2019-02-11T07:33:27.013Z,4.20
2019-02-11T07:35:55.952Z,4.20
2019-02-11T07:38:24.796Z,4.30
2019-02-11T07:40:53.809Z,4.20
2019-02-11T07:43:41.659Z,4.20
2019-02-11T07:46:20.569Z,4.30
2019-02-11T07:48:50.774Z,4.30
2019-02-11T07:51:19.628Z,4.40
2019-02-11T07:53:49.181Z,4.40
2019-02-11T07:56:18.152Z,4.50
2019-02-11T07:58:47.085Z,4.50
2019-02-11T08:01:21.284Z,4.50
2019-02-11T08:03:50.399Z,4.60
2019-02-11T08:06:19.287Z,4.60
2019-02-11T08:08:48.241Z,4.70
2019-02-11T08:11:17.229Z,4.80
2019-02-11T08:13:46.048Z,4.80
2019-02-11T08:16:15.041Z,4.90
2019-02-11T08:18:43.909Z,5.00
2019-02-11T08:21:12.807Z,5.00
2019-02-11T08:23:41.889Z,5.20
2019-02-11T08:26:10.791Z,5.20
2019-02-11T08:28:39.643Z,5.30
2019-02-11T08:31:08.689Z,5.40
2019-02-11T08:33:37.505Z,5.40
2019-02-11T08:36:06.341Z,5.50
2019-02-11T08:38:35.860Z,5.60
2019-02-11T08:41:04.758Z,5.60
2019-02-11T08:43:33.665Z,5.80
2019-02-11T08:46:02.701Z,5.80
2019-02-11T08:48:31.514Z,5.90
2019-02-11T08:51:00.294Z,6.00
2019-02-11T08:53:29.400Z,6.10
2019-02-11T08:55:58.358Z,6.20
2019-02-11T08:58:27.211Z,6.30
2019-02-11T09:00:56.326Z,6.40
2019-02-11T09:03:25.152Z,6.50
2019-02-11T09:05:54.018Z,6.70
2019-02-11T09:08:23.091Z,6.90
2019-02-11T09:10:52.001Z,6.80
2019-02-11T09:13:21.088Z,6.70
2019-02-11T09:15:55.252Z,6.70
2019-02-11T09:18:20.888Z,6.60
2019-02-11T09:20:49.814Z,6.80
2019-02-11T09:23:19.139Z,7.10
2019-02-11T09:25:47.982Z,7.20
2019-02-11T09:28:16.909Z,7.20
2019-02-11T09:30:46.192Z,7.10
2019-02-11T09:33:15.072Z,7.00
2019-02-11T09:35:43.965Z,6.90
2019-02-11T09:38:13.022Z,6.90
2019-02-11T09:40:42.017Z,6.80
2019-02-11T09:43:10.810Z,6.80
2019-02-11T09:45:40.001Z,6.80
2019-02-11T09:48:09.135Z,6.80
2019-02-11T09:50:44.464Z,6.90
2019-02-11T09:53:13.404Z,6.80
2019-02-11T09:55:42.305Z,6.80
2019-02-11T09:58:11.462Z,6.90
2019-02-11T10:00:40.345Z,7.00
2019-02-11T10:03:09.387Z,7.10
2019-02-11T10:05:38.453Z,7.10
2019-02-11T10:08:07.332Z,7.00
2019-02-11T10:10:36.380Z,6.90
2019-02-11T10:13:05.557Z,6.90
2019-02-11T10:15:34.564Z,6.90
2019-02-11T10:18:03.520Z,6.90
2019-02-11T10:20:32.808Z,6.90
2019-02-11T10:23:02.037Z,6.90
2019-02-11T10:25:31.048Z,6.90
2019-02-11T10:28:06.033Z,6.90
2019-02-11T10:30:35.186Z,6.80
2019-02-11T10:33:04.159Z,7.00
2019-02-11T10:35:41.865Z,7.30
2019-02-11T10:38:04.513Z,7.30
2019-02-11T10:40:33.362Z,7.30
2019-02-11T10:43:02.576Z,7.60
2019-02-11T10:45:36.539Z,7.90
2019-02-11T10:48:02.189Z,8.00
2019-02-11T10:50:31.309Z,7.90
2019-02-11T10:53:00.750Z,7.80
2019-02-11T10:55:29.629Z,7.90
2019-02-11T10:57:58.785Z,7.90
2019-02-11T11:00:27.732Z,8.00
2019-02-11T11:02:56.720Z,7.90
2019-02-11T11:05:25.663Z,7.80
2019-02-11T11:07:54.716Z,7.90
2019-02-11T11:10:29.457Z,7.90
2019-02-11T11:12:58.848Z,7.90
2019-02-11T11:15:29.055Z,8.00
2019-02-11T11:17:58.516Z,8.30
2019-02-11T11:20:27.717Z,8.50
2019-02-11T11:22:56.677Z,8.70
2019-02-11T11:25:25.833Z,8.40
2019-02-11T11:27:54.729Z,8.50
2019-02-11T11:30:23.552Z,8.70
2019-02-11T11:32:52.604Z,8.80
2019-02-11T11:35:21.568Z,8.90
2019-02-11T11:37:50.406Z,9.00
2019-02-11T11:40:19.503Z,9.20
2019-02-11T11:42:48.674Z,9.30
2019-02-11T11:45:18.194Z,9.30
2019-02-11T11:47:47.359Z,9.70
2019-02-11T11:50:16.869Z,9.80
2019-02-11T11:52:45.876Z,9.60
2019-02-11T11:55:15.770Z,9.40
2019-02-11T11:57:44.723Z,9.20
2019-02-11T12:00:19.635Z,9.00
2019-02-11T12:03:00.637Z,8.70
2019-02-11T12:05:19.370Z,8.60
2019-02-11T12:07:48.828Z,8.60
2019-02-11T12:10:17.833Z,8.50
2019-02-11T12:12:46.732Z,8.30
2019-02-11T12:15:17.243Z,8.20
2019-02-11T12:17:46.653Z,8.20
2019-02-11T12:20:15.615Z,8.80
2019-02-11T12:22:44.713Z,9.30
2019-02-11T12:25:14.581Z,9.40
2019-02-11T12:27:43.523Z,9.70
2019-02-11T12:30:15.040Z,9.80
2019-02-11T12:32:44.195Z,9.80
2019-02-11T12:35:13.410Z,9.30
2019-02-11T12:37:42.461Z,9.20
2019-02-11T12:40:11.430Z,9.00
2019-02-11T12:42:40.402Z,8.80
2019-02-11T12:45:14.797Z,8.70
2019-02-11T12:47:43.849Z,8.60
2019-02-11T12:50:13.850Z,8.40
2019-02-11T12:52:43.097Z,8.50
2019-02-11T12:55:12.408Z,8.90
2019-02-11T12:57:41.308Z,9.10
2019-02-11T13:00:16.889Z,9.20
2019-02-11T13:02:46.361Z,9.50
2019-02-11T13:05:15.520Z,9.60
2019-02-11T13:07:44.733Z,9.70
2019-02-11T13:10:16.027Z,10.00
2019-02-11T13:12:45.190Z,10.20
2019-02-11T13:15:33.562Z,10.00
2019-02-11T13:17:45.318Z,9.50
2019-02-11T13:20:14.547Z,9.20
2019-02-11T13:22:43.621Z,9.10
2019-02-11T13:25:13.926Z,9.00
2019-02-11T13:27:43.068Z,8.90
2019-02-11T13:30:16.982Z,8.80
2019-02-11T13:32:46.369Z,8.80
2019-02-11T13:35:15.195Z,8.80
2019-02-11T13:37:44.442Z,8.70
2019-02-11T13:40:13.627Z,8.60
2019-02-11T13:42:42.594Z,8.50
2019-02-11T13:45:13.775Z,8.40
2019-02-11T13:47:53.194Z,8.50
2019-02-11T13:50:16.285Z,8.60
2019-02-11T13:52:45.481Z,8.70
2019-02-11T13:55:14.587Z,8.90
2019-02-11T13:57:43.874Z,8.90
2019-02-11T14:00:17.897Z,9.10
2019-02-11T14:02:54.108Z,9.00
2019-02-11T14:05:23.478Z,9.00
2019-02-11T14:07:52.533Z,8.80
2019-02-11T14:10:21.695Z,8.60
2019-02-11T14:12:50.678Z,8.50
2019-02-11T14:15:20.918Z,8.30
2019-02-11T14:17:50.211Z,8.20
2019-02-11T14:20:21.118Z,8.10
2019-02-11T14:22:50.121Z,8.10
2019-02-11T14:25:39.124Z,8.20
2019-02-11T14:27:49.752Z,8.30
2019-02-11T14:30:19.707Z,8.40
2019-02-11T14:32:48.853Z,8.50
2019-02-11T14:35:18.202Z,8.50
2019-02-11T14:37:47.163Z,8.40
2019-02-11T14:40:21.205Z,8.40
2019-02-11T14:42:50.111Z,8.50
2019-02-11T14:45:19.184Z,8.50
2019-02-11T14:47:48.325Z,8.50
2019-02-11T14:50:17.300Z,8.50
2019-02-11T14:52:46.200Z,8.50
2019-02-11T14:55:15.345Z,8.50
2019-02-11T14:57:44.210Z,8.50
2019-02-11T15:00:19.497Z,8.50
2019-02-11T15:02:48.423Z,8.40
2019-02-11T15:05:17.547Z,8.30
2019-02-11T15:07:46.805Z,8.20
2019-02-11T15:10:15.825Z,8.20
2019-02-11T15:12:44.752Z,8.20
2019-02-11T15:15:14.108Z,8.10
2019-02-11T15:17:43.113Z,8.10
2019-02-11T15:20:13.308Z,8.10
2019-02-11T15:22:42.238Z,8.10
2019-02-11T15:25:13.204Z,8.20
2019-02-11T15:27:42.112Z,8.10
2019-02-11T15:30:13.378Z,8.20
2019-02-11T15:32:42.251Z,8.20
2019-02-11T15:35:11.248Z,8.30
2019-02-11T15:37:40.397Z,8.50
2019-02-11T15:40:11.661Z,8.40
2019-02-11T15:42:40.573Z,8.50
2019-02-11T15:45:11.393Z,8.40
2019-02-11T15:47:40.285Z,8.40
2019-02-11T15:50:10.641Z,8.40
2019-02-11T15:52:39.757Z,8.30
2019-02-11T15:55:10.572Z,8.20
2019-02-11T15:57:39.498Z,8.20
2019-02-11T16:00:11.042Z,8.00
2019-02-11T16:02:39.881Z,7.90
2019-02-11T16:05:16.042Z,7.70
2019-02-11T16:07:40.197Z,7.60
2019-02-11T16:10:10.744Z,7.60
2019-02-11T16:12:39.594Z,7.50
2019-02-11T16:15:08.794Z,7.40
2019-02-11T16:17:37.655Z,7.30
2019-02-11T16:20:06.913Z,7.20
2019-02-11T16:22:35.841Z,7.30
2019-02-11T16:25:05.067Z,7.30
2019-02-11T16:27:33.917Z,7.30
2019-02-11T16:30:03.488Z,7.20
2019-02-11T16:32:32.328Z,7.20
2019-02-11T16:35:01.145Z,7.10
2019-02-11T16:37:31.220Z,6.90
2019-02-11T16:40:00.433Z,6.90
2019-02-11T16:42:29.321Z,6.80
2019-02-11T16:44:58.633Z,6.70
2019-02-11T16:47:27.489Z,6.70
2019-02-11T16:49:56.377Z,6.70
2019-02-11T16:52:25.481Z,6.60
2019-02-11T16:54:54.277Z,6.70
2019-02-11T16:57:23.166Z,6.50
2019-02-11T16:59:53.142Z,6.40
2019-02-11T17:02:22.449Z,6.40
2019-02-11T17:04:51.344Z,6.40
2019-02-11T17:07:20.466Z,6.30
2019-02-11T17:09:49.396Z,6.20
2019-02-11T17:12:18.256Z,6.20
2019-02-11T17:14:47.298Z,6.10
2019-02-11T17:17:16.223Z,6.00
2019-02-11T17:19:45.060Z,6.00
2019-02-11T17:22:14.080Z,5.90
2019-02-11T17:24:42.897Z,5.80
2019-02-11T17:27:11.731Z,5.70
2019-02-11T17:29:40.691Z,5.70
2019-02-11T17:32:09.523Z,5.60
2019-02-11T17:34:38.344Z,5.40
2019-02-11T17:37:07.384Z,5.40
2019-02-11T17:39:36.169Z,5.30
2019-02-11T17:42:05.143Z,5.20
2019-02-11T17:44:34.109Z,5.10
2019-02-11T17:47:02.902Z,5.00
2019-02-11T17:49:31.748Z,4.90
2019-02-11T17:52:00.852Z,4.80
2019-02-11T17:54:29.883Z,4.70
2019-02-11T17:56:58.861Z,4.70
2019-02-11T17:59:27.832Z,4.70
2019-02-11T18:01:56.801Z,4.60
2019-02-11T18:04:25.849Z,4.50
2019-02-11T18:06:55.013Z,4.40
2019-02-11T18:09:43.143Z,4.40
2019-02-11T18:12:12.312Z,4.40
2019-02-11T18:14:41.124Z,4.30
2019-02-11T18:17:10.022Z,4.20
2019-02-11T18:19:38.956Z,4.20
2019-02-11T18:22:07.876Z,4.10
2019-02-11T18:24:36.733Z,4.00
2019-02-11T18:27:05.990Z,4.00
2019-02-11T18:29:35.022Z,4.00
2019-02-11T18:32:04.101Z,4.00
2019-02-11T18:34:33.092Z,3.90
2019-02-11T18:37:01.945Z,3.80
2019-02-11T18:39:30.730Z,3.80
2019-02-11T18:41:59.715Z,3.80
2019-02-11T18:44:28.520Z,3.70
2019-02-11T18:46:57.393Z,3.70
2019-02-11T18:49:34.193Z,3.70
2019-02-11T18:51:56.929Z,3.60
2019-02-11T18:54:25.795Z,3.60
2019-02-11T18:56:54.789Z,3.60
2019-02-11T18:59:24.872Z,3.50
2019-02-11T19:01:53.837Z,3.50
2019-02-11T19:04:22.965Z,3.40
2019-02-11T19:06:51.886Z,3.50
2019-02-11T19:09:20.796Z,3.40
2019-02-11T19:11:49.849Z,3.40
2019-02-11T19:14:18.657Z,3.30
2019-02-11T19:16:48.688Z,3.30
2019-02-11T19:19:17.809Z,3.20
2019-02-11T19:21:46.647Z,3.20
2019-02-11T19:24:15.451Z,3.20
2019-02-11T19:26:44.560Z,3.10
2019-02-11T19:29:13.342Z,3.10
2019-02-11T19:31:42.160Z,3.10
2019-02-11T19:34:11.097Z,3.00
2019-02-11T19:36:39.906Z,3.00
2019-02-11T19:39:08.862Z,3.00
2019-02-11T19:41:37.848Z,2.90
2019-02-11T19:44:06.772Z,2.90
2019-02-11T19:46:35.545Z,2.80
2019-02-11T19:49:04.557Z,2.80
2019-02-11T19:51:33.364Z,2.90
2019-02-11T19:54:02.254Z,2.80
2019-02-11T19:56:31.286Z,2.80
2019-02-11T19:59:00.105Z,2.80
2019-02-11T20:01:28.906Z,2.70
2019-02-11T20:03:57.942Z,2.80
2019-02-11T20:06:26.777Z,2.70
2019-02-11T20:08:55.889Z,2.70
2019-02-11T20:11:24.957Z,2.70
2019-02-11T20:13:53.825Z,2.70
2019-02-11T20:16:22.702Z,2.70
2019-02-11T20:18:52.037Z,2.70
2019-02-11T20:21:20.981Z,2.60
2019-02-11T20:23:49.824Z,2.60
2019-02-11T20:26:19.192Z,2.60
2019-02-11T20:28:47.973Z,2.50
2019-02-11T20:31:16.874Z,2.50
2019-02-11T20:33:45.784Z,2.50
2019-02-11T20:36:14.716Z,2.50
2019-02-11T20:38:43.551Z,2.50
2019-02-11T20:41:12.684Z,2.50
2019-02-11T20:43:41.513Z,2.60
2019-02-11T20:46:10.342Z,2.50
2019-02-11T20:48:39.412Z,2.50
2019-02-11T20:51:08.338Z,2.50
2019-02-11T20:53:37.231Z,2.40
2019-02-11T20:56:06.399Z,2.40
2019-02-11T20:58:35.315Z,2.40
2019-02-11T21:01:04.421Z,2.40
2019-02-11T21:03:33.455Z,2.30
2019-02-11T21:06:02.278Z,2.30
2019-02-11T21:08:31.200Z,2.30
2019-02-11T21:11:00.280Z,2.30
2019-02-11T21:13:29.167Z,2.30
2019-02-11T21:15:58.068Z,2.30
2019-02-11T21:18:27.428Z,2.40
2019-02-11T21:20:56.506Z,2.30
2019-02-11T21:23:25.459Z,2.30
2019-02-11T21:25:54.441Z,2.40
2019-02-11T21:28:23.252Z,2.40
2019-02-11T21:30:52.201Z,2.40
2019-02-11T21:33:21.329Z,2.40
2019-02-11T21:35:50.153Z,2.40
2019-02-11T21:38:19.006Z,2.40
2019-02-11T21:40:48.090Z,2.30
2019-02-11T21:43:16.896Z,2.20
2019-02-11T21:45:45.838Z,2.20
2019-02-11T21:48:14.977Z,2.20
2019-02-11T21:50:43.849Z,2.20
2019-02-11T21:53:12.779Z,2.10
2019-02-11T21:55:41.876Z,2.10
2019-02-11T21:58:13.678Z,2.10
2019-02-11T22:00:42.604Z,2.10
2019-02-11T22:03:11.681Z,2.10
2019-02-11T22:05:40.517Z,2.10
2019-02-11T22:08:09.388Z,2.10
2019-02-11T22:10:38.241Z,2.10
2019-02-11T22:13:07.183Z,2.10
2019-02-11T22:15:36.037Z,2.10
2019-02-11T22:18:05.180Z,2.10
2019-02-11T22:20:34.936Z,2.10
2019-02-11T22:23:04.279Z,2.10
2019-02-11T22:25:33.395Z,2.10
2019-02-11T22:28:02.322Z,2.10
2019-02-11T22:30:31.220Z,2.10
2019-02-11T22:33:00.237Z,2.10
2019-02-11T22:35:29.156Z,2.10
2019-02-11T22:37:57.984Z,2.10
2019-02-11T22:40:26.860Z,2.00
2019-02-11T22:42:55.726Z,2.00
2019-02-11T22:45:24.637Z,2.00
2019-02-11T22:47:53.754Z,2.00
2019-02-11T22:50:22.553Z,2.00
2019-02-11T22:52:51.622Z,2.00
2019-02-11T22:55:20.604Z,2.00
2019-02-11T22:57:49.412Z,2.00
2019-02-11T23:00:48.195Z,2.00
2019-02-11T23:03:17.257Z,2.00
2019-02-11T23:05:46.137Z,2.00
2019-02-11T23:08:15.113Z,2.00
2019-02-11T23:10:44.152Z,2.00
2019-02-11T23:13:13.083Z,2.10
2019-02-11T23:15:42.170Z,2.00
2019-02-11T23:18:11.149Z,2.00
2019-02-11T23:20:40.033Z,2.00
2019-02-11T23:23:09.229Z,2.00
2019-02-11T23:25:38.187Z,2.00
2019-02-11T23:28:07.059Z,2.00
2019-02-11T23:30:36.035Z,2.00
2019-02-11T23:33:04.901Z,2.00
2019-02-11T23:35:33.743Z,2.00
2019-02-11T23:38:02.921Z,2.00
2019-02-11T23:40:31.829Z,2.10
2019-02-11T23:43:00.725Z,2.10
2019-02-11T23:45:29.702Z,2.10
2019-02-11T23:47:58.539Z,2.10
2019-02-11T23:50:27.430Z,2.20
2019-02-11T23:52:56.384Z,2.20
2019-02-11T23:55:25.378Z,2.30
2019-02-11T23:57:54.197Z,2.20
